Time;durP1;ratioP1;P1;durP2;ratioP2;P2;SDS_P1;SDS_P2;PMS_P1;PMS_P2;Temp;Humidity;BMP_temperature;BMP_pressure;BME280_temperature;BME280_humidity;BME280_pressure;Samples;Min_cycle;Max_cycle;Signal;HPM_P1;HPM_P2
2023/06/14 00:01:13;;;;;;;5.60;3.60;;;15.30;98.00;;;;;;5092726;28;20454;-68
2023/06/14 00:03:40;;;;;;;5.87;3.40;;;15.30;98.00;;;;;;5092659;28;20448;-68
2023/06/14 00:06:07;;;;;;;7.07;4.17;;;15.50;97.50;;;;;;5092409;28;20471;-68
2023/06/14 00:08:34;;;;;;;5.50;3.80;;;15.60;97.10;;;;;;5092463;28;20501;-68
2023/06/14 00:11:02;;;;;;;7.90;3.70;;;15.60;97.10;;;;;;5092569;28;20848;-68
2023/06/14 00:13:31;;;;;;;6.73;3.47;;;15.40;97.10;;;;;;5092203;28;20456;-68
2023/06/14 00:15:58;;;;;;;7.30;3.70;;;15.20;98.00;;;;;;5092229;28;20451;-68
2023/06/14 00:18:29;;;;;;;8.57;4.30;;;15.30;98.00;;;;;;5092312;28;20833;-68
2023/06/14 00:20:57;;;;;;;7.67;3.80;;;15.20;98.00;;;;;;5092055;28;20488;-68
2023/06/14 00:23:24;;;;;;;6.13;3.57;;;15.00;98.00;;;;;;5074293;28;20471;-68
2023/06/14 00:28:36;;;;;;;7.00;3.80;;;15.00;98.00;;;;;;5091335;28;20939;-68
2023/06/14 00:31:04;;;;;;;6.13;3.50;;;15.10;98.00;;;;;;5073984;28;20455;-68
2023/06/14 00:33:31;;;;;;;7.30;3.70;;;15.20;98.00;;;;;;5073683;28;20460;-68
2023/06/14 00:35:58;;;;;;;5.70;3.60;;;15.20;98.00;;;;;;5091843;28;20513;-68
2023/06/14 00:38:28;;;;;;;7.80;3.90;;;15.20;98.00;;;;;;5091851;28;20506;-68
2023/06/14 00:40:55;;;;;;;6.53;3.80;;;15.20;98.00;;;;;;5091821;28;20530;-68
2023/06/14 00:43:22;;;;;;;5.50;3.80;;;14.90;98.00;;;;;;5091956;28;20821;-68
2023/06/14 00:45:52;;;;;;;7.70;3.47;;;14.90;98.00;;;;;;5091737;28;20456;-68
2023/06/14 00:48:26;;;;;;;6.10;3.43;;;14.90;98.00;;;;;;5092131;28;20534;-68
2023/06/14 00:50:54;;;;;;;6.27;3.57;;;15.00;98.00;;;;;;5091743;28;20444;-68
2023/06/14 00:53:22;;;;;;;7.63;4.20;;;14.90;98.00;;;;;;5091841;28;20448;-68
2023/06/14 00:55:49;;;;;;;5.63;3.63;;;14.80;98.00;;;;;;5074114;28;20456;-68
2023/06/14 00:58:17;;;;;;;7.27;3.80;;;14.70;98.00;;;;;;5091769;28;20513;-68
2023/06/14 01:00:45;;;;;;;7.37;3.90;;;14.70;98.00;;;;;;5073839;28;20459;-68
2023/06/14 01:03:18;;;;;;;7.50;3.73;;;14.60;98.00;;;;;;5091689;28;20487;-68
2023/06/14 01:05:45;;;;;;;7.73;3.70;;;14.40;98.00;;;;;;5091370;28;20462;-68
2023/06/14 01:08:25;;;;;;;7.03;4.33;;;14.60;98.00;;;;;;5091458;28;20460;-68
2023/06/14 01:11:04;;;;;;;6.87;3.77;;;14.50;98.00;;;;;;5091616;28;20452;-68
2023/06/14 01:13:35;;;;;;;8.63;4.23;;;14.50;98.00;;;;;;5091429;28;20871;-68
2023/06/14 01:16:02;;;;;;;6.60;3.60;;;14.50;98.00;;;;;;5091367;28;20495;-68
2023/06/14 01:18:32;;;;;;;7.13;4.07;;;14.30;98.00;;;;;;5091295;28;20530;-68
2023/06/14 01:20:59;;;;;;;7.60;4.63;;;14.20;98.00;;;;;;5091303;28;20448;-68
2023/06/14 01:23:32;;;;;;;6.90;3.90;;;14.10;98.00;;;;;;5073514;28;20451;-68
2023/06/14 01:26:02;;;;;;;7.60;3.30;;;14.10;98.00;;;;;;5091233;28;20451;-68
2023/06/14 01:28:31;;;;;;;7.47;4.00;;;14.20;98.00;;;;;;5091402;28;20447;-68
2023/06/14 01:31:03;;;;;;;7.70;3.80;;;14.10;98.00;;;;;;5072876;28;20479;-68
2023/06/14 01:33:36;;;;;;;5.93;3.53;;;14.20;98.00;;;;;;5073708;28;20459;-68
2023/06/14 01:36:06;;;;;;;6.67;3.80;;;14.30;98.00;;;;;;5091160;28;20452;-68
2023/06/14 01:38:34;;;;;;;7.33;3.87;;;14.10;98.00;;;;;;5091133;28;20456;-68
2023/06/14 01:41:02;;;;;;;6.73;3.80;;;14.00;98.00;;;;;;5090924;28;20501;-68
2023/06/14 01:43:31;;;;;;;9.77;4.10;;;13.80;98.00;;;;;;5091164;28;20825;-68
2023/06/14 01:45:59;;;;;;;8.07;3.70;;;13.80;98.00;;;;;;5095015;28;20452;-68
2023/06/14 01:48:26;;;;;;;6.00;3.00;;;13.70;98.00;;;;;;5077431;28;20460;-68
2023/06/14 01:50:54;;;;;;;8.40;3.63;;;13.60;98.00;;;;;;5095381;28;20950;-68
2023/06/14 01:53:22;;;;;;;6.37;3.40;;;13.50;98.00;;;;;;5095225;28;20471;-68
2023/06/14 01:55:50;;;;;;;7.33;4.00;;;13.50;98.00;;;;;;5095011;28;20456;-68
2023/06/14 01:58:17;;;;;;;12.27;5.23;;;13.50;98.00;;;;;;5095007;28;20513;-68
2023/06/14 02:00:45;;;;;;;8.60;4.00;;;13.50;98.00;;;;;;5077044;28;20483;-68
2023/06/14 02:03:12;;;;;;;8.27;4.37;;;13.40;98.00;;;;;;5094975;28;20830;-68
2023/06/14 02:05:41;;;;;;;8.57;4.00;;;13.20;98.00;;;;;;5094713;28;20861;-68
2023/06/14 02:08:08;;;;;;;9.43;4.13;;;13.30;98.00;;;;;;5093385;28;20460;-68
2023/06/14 02:10:35;;;;;;;6.47;3.30;;;13.40;98.00;;;;;;5094713;28;20456;-68
2023/06/14 02:13:07;;;;;;;7.60;3.90;;;13.40;98.00;;;;;;5076683;28;20455;-68
2023/06/14 02:15:35;;;;;;;10.40;4.27;;;13.50;98.00;;;;;;5076594;28;20509;-68
2023/06/14 02:18:03;;;;;;;7.30;3.90;;;13.40;98.00;;;;;;5076795;28;20460;-68
2023/06/14 02:20:30;;;;;;;6.17;3.60;;;13.60;98.00;;;;;;5094644;28;20566;-68
2023/06/14 02:22:57;;;;;;;6.90;3.70;;;13.40;98.00;;;;;;5076173;28;20525;-68
2023/06/14 02:25:24;;;;;;;7.23;3.57;;;13.20;98.00;;;;;;5094386;28;20467;-68
2023/06/14 02:27:51;;;;;;;6.87;3.77;;;13.20;98.00;;;;;;5094653;28;20886;-68
2023/06/14 02:30:20;;;;;;;8.13;3.77;;;13.00;98.00;;;;;;5094496;28;20459;-68
2023/06/14 02:32:48;;;;;;;7.13;3.90;;;12.90;98.00;;;;;;5094360;28;20458;-68
2023/06/14 02:35:16;;;;;;;7.70;3.90;;;13.00;98.00;;;;;;5094332;28;20448;-68
2023/06/14 02:37:43;;;;;;;7.63;4.03;;;13.00;98.00;;;;;;5076170;28;20463;-68
2023/06/14 02:40:11;;;;;;;6.93;4.10;;;12.90;98.00;;;;;;5094210;28;20508;-68
2023/06/14 02:42:38;;;;;;;7.57;4.00;;;12.90;98.00;;;;;;5094563;28;20452;-68
2023/06/14 02:45:06;;;;;;;8.20;3.90;;;13.00;98.00;;;;;;5094335;28;20887;-68
2023/06/14 02:47:35;;;;;;;6.60;3.50;;;13.00;98.00;;;;;;5076460;28;20460;-67
2023/06/14 02:50:02;;;;;;;8.60;4.10;;;13.00;98.00;;;;;;5076045;28;20521;-67
2023/06/14 02:52:30;;;;;;;8.17;4.20;;;12.90;98.00;;;;;;5094124;28;20456;-68
2023/06/14 02:54:57;;;;;;;7.30;3.80;;;12.90;98.00;;;;;;5093406;28;20468;-68
2023/06/14 02:57:24;;;;;;;6.87;3.80;;;12.90;98.00;;;;;;5093896;28;20465;-68
2023/06/14 02:59:52;;;;;;;8.93;4.13;;;12.90;98.00;;;;;;5093733;28;20844;-68
2023/06/14 03:02:19;;;;;;;7.90;4.30;;;12.80;98.00;;;;;;5093759;28;20745;-68
2023/06/14 03:04:47;;;;;;;9.30;4.30;;;12.70;98.00;;;;;;5093691;28;20879;-68
2023/06/14 03:07:19;;;;;;;8.33;4.07;;;12.60;98.00;;;;;;5093726;28;20858;-68
2023/06/14 03:09:46;;;;;;;8.60;4.17;;;12.80;98.00;;;;;;5076120;28;20451;-68
2023/06/14 03:12:14;;;;;;;7.23;3.70;;;13.00;98.00;;;;;;5093544;28;20455;-68
2023/06/14 03:14:45;;;;;;;9.50;3.83;;;13.10;98.00;;;;;;5093362;28;20973;-68
2023/06/14 03:17:12;;;;;;;7.77;4.00;;;13.10;98.00;;;;;;5093429;28;20484;-68
2023/06/14 03:19:41;;;;;;;7.87;4.10;;;13.00;98.00;;;;;;5093217;28;21019;-68
2023/06/14 03:22:11;;;;;;;7.63;3.90;;;12.80;98.00;;;;;;5093174;28;20456;-68
2023/06/14 03:24:41;;;;;;;5.87;3.83;;;12.90;98.00;;;;;;5093186;28;20460;-68
2023/06/14 03:27:09;;;;;;;6.80;3.80;;;13.10;98.00;;;;;;5075670;28;20454;-68
2023/06/14 03:29:36;;;;;;;8.53;4.13;;;12.90;98.00;;;;;;5093054;28;20509;-68
2023/06/14 03:32:06;;;;;;;6.33;3.50;;;12.80;98.00;;;;;;5093179;28;20456;-68
2023/06/14 03:34:34;;;;;;;9.73;4.90;;;12.70;98.00;;;;;;5074924;28;20989;-68
2023/06/14 03:37:01;;;;;;;6.23;3.60;;;12.90;98.00;;;;;;5093138;28;20957;-68
2023/06/14 03:39:30;;;;;;;9.37;3.87;;;12.90;98.00;;;;;;5093024;28;20501;-68
2023/06/14 03:41:57;;;;;;;7.37;3.37;;;13.00;98.00;;;;;;5093291;28;20475;-68
2023/06/14 03:44:24;;;;;;;9.37;4.40;;;13.00;98.00;;;;;;5092986;28;20485;-68
2023/06/14 03:46:51;;;;;;;6.37;3.90;;;13.00;98.00;;;;;;5092905;28;20532;-68
2023/06/14 03:49:18;;;;;;;8.07;4.40;;;13.00;98.00;;;;;;5075030;28;20456;-68
2023/06/14 03:51:51;;;;;;;5.77;3.57;;;12.80;98.00;;;;;;5092880;28;20542;-67
2023/06/14 03:54:18;;;;;;;6.23;3.83;;;12.80;98.00;;;;;;5092694;28;20495;-68
2023/06/14 03:56:46;;;;;;;6.97;4.00;;;12.80;98.00;;;;;;5092729;28;20455;-68
2023/06/14 03:59:13;;;;;;;8.47;4.20;;;12.60;98.00;;;;;;5092724;28;20452;-68
2023/06/14 04:01:46;;;;;;;8.33;3.73;;;12.60;98.00;;;;;;5092572;28;20491;-68
2023/06/14 04:04:16;;;;;;;6.83;3.93;;;12.50;98.00;;;;;;5092710;28;20451;-68
2023/06/14 04:06:43;;;;;;;7.93;3.87;;;12.50;98.00;;;;;;5074069;28;20480;-68
2023/06/14 04:09:10;;;;;;;8.40;4.23;;;12.50;98.00;;;;;;5092735;28;20463;-68
2023/06/14 04:11:37;;;;;;;9.87;4.27;;;12.30;98.00;;;;;;5092288;28;20963;-68
2023/06/14 04:14:06;;;;;;;8.80;4.70;;;12.20;98.00;;;;;;5092583;28;20456;-68
2023/06/14 04:16:34;;;;;;;6.07;3.70;;;12.40;98.00;;;;;;5092384;28;20475;-68
2023/06/14 04:19:02;;;;;;;8.37;4.20;;;12.60;98.00;;;;;;5075498;28;20535;-68
2023/06/14 04:21:29;;;;;;;8.77;4.20;;;12.80;98.00;;;;;;5092202;28;20500;-67
2023/06/14 04:23:56;;;;;;;10.93;3.83;;;12.90;98.00;;;;;;5074399;28;20945;-68
2023/06/14 04:26:29;;;;;;;8.20;3.93;;;13.00;98.00;;;;;;5073848;28;20456;-68
2023/06/14 04:29:01;;;;;;;7.43;4.20;;;12.80;98.00;;;;;;5092255;28;20455;-68
2023/06/14 04:31:33;;;;;;;7.00;4.30;;;12.90;98.00;;;;;;5074847;28;20456;-68
2023/06/14 04:34:00;;;;;;;6.57;4.10;;;12.80;98.00;;;;;;5092313;28;20456;-67
2023/06/14 04:36:27;;;;;;;7.80;4.00;;;13.00;98.00;;;;;;5092204;28;20456;-68
2023/06/14 04:38:58;;;;;;;8.93;4.27;;;13.10;98.00;;;;;;5092175;28;20483;-68
2023/06/14 04:41:28;;;;;;;9.43;4.90;;;13.30;98.00;;;;;;5073790;28;20487;-67
2023/06/14 04:43:57;;;;;;;7.10;3.90;;;13.30;98.00;;;;;;5074419;28;20487;-68
2023/06/14 04:46:24;;;;;;;14.10;4.20;;;13.30;98.00;;;;;;5091730;28;20470;-68
2023/06/14 04:48:52;;;;;;;7.40;4.03;;;13.20;98.00;;;;;;5073916;28;20459;-68
2023/06/14 04:51:21;;;;;;;11.50;4.03;;;13.20;98.00;;;;;;5091761;28;20888;-68
2023/06/14 04:53:49;;;;;;;8.97;4.50;;;13.30;98.00;;;;;;5091665;28;20452;-68
2023/06/14 04:56:23;;;;;;;9.33;4.57;;;13.40;98.00;;;;;;5091706;28;20547;-68
2023/06/14 04:58:50;;;;;;;7.33;4.07;;;13.60;98.00;;;;;;5091714;28;20505;-68
2023/06/14 05:01:17;;;;;;;10.03;4.20;;;13.70;98.00;;;;;;5091395;28;21032;-68
2023/06/14 05:03:48;;;;;;;8.67;4.10;;;13.80;98.00;;;;;;5091546;28;20459;-68
2023/06/14 05:06:17;;;;;;;7.13;4.10;;;13.90;98.00;;;;;;5091559;28;20448;-68
2023/06/14 05:08:45;;;;;;;6.87;3.93;;;13.90;98.00;;;;;;5091394;28;20487;-68
2023/06/14 05:11:12;;;;;;;7.30;4.00;;;13.90;98.00;;;;;;5091393;28;20543;-68
2023/06/14 05:13:39;;;;;;;8.80;4.77;;;14.10;98.00;;;;;;5073588;28;20463;-68
2023/06/14 05:16:07;;;;;;;7.13;3.73;;;14.10;98.00;;;;;;5091442;28;20451;-68
2023/06/14 05:18:35;;;;;;;9.90;4.57;;;14.20;98.00;;;;;;5091393;28;20526;-68
2023/06/14 05:21:03;;;;;;;8.93;4.67;;;14.30;98.00;;;;;;5091140;28;20556;-68
2023/06/14 05:23:32;;;;;;;10.60;4.77;;;14.40;98.00;;;;;;5091218;28;20471;-68
2023/06/14 05:25:59;;;;;;;9.20;4.57;;;14.50;98.00;;;;;;5091405;28;20460;-68
2023/06/14 05:28:26;;;;;;;16.50;4.80;;;14.60;98.00;;;;;;5091348;28;20866;-68
2023/06/14 05:30:53;;;;;;;10.13;4.57;;;14.40;98.00;;;;;;5091350;28;20447;-68
2023/06/14 05:33:20;;;;;;;8.33;4.40;;;14.50;98.00;;;;;;5073780;28;20516;-68
2023/06/14 05:35:47;;;;;;;9.20;4.60;;;14.60;98.00;;;;;;5091280;28;20460;-68
2023/06/14 05:38:14;;;;;;;6.97;4.20;;;14.70;98.00;;;;;;5091326;28;20452;-68
2023/06/14 05:40:45;;;;;;;8.17;4.13;;;14.70;98.00;;;;;;5091008;28;20479;-68
2023/06/14 05:43:12;;;;;;;7.97;4.57;;;14.80;98.00;;;;;;5091106;28;20456;-68
2023/06/14 05:45:39;;;;;;;6.10;3.60;;;15.00;98.00;;;;;;5090970;28;20452;-68
2023/06/14 05:48:06;;;;;;;7.50;4.27;;;15.10;98.00;;;;;;5091176;28;20824;-67
2023/06/14 05:50:33;;;;;;;7.00;4.07;;;15.30;98.00;;;;;;5090958;28;20962;-68
2023/06/14 05:53:03;;;;;;;8.03;4.60;;;15.40;98.00;;;;;;5091033;28;20447;-69
2023/06/14 05:55:30;;;;;;;8.70;4.73;;;15.60;98.00;;;;;;5091146;28;20468;-69
2023/06/14 05:58:01;;;;;;;8.13;3.90;;;15.70;98.00;;;;;;5091381;28;20460;-69
2023/06/14 06:00:29;;;;;;;7.67;4.37;;;15.80;98.00;;;;;;5073477;28;20844;-69
2023/06/14 06:02:57;;;;;;;11.23;4.70;;;16.00;98.00;;;;;;5091221;28;20459;-69
2023/06/14 06:05:24;;;;;;;6.73;4.33;;;16.10;98.00;;;;;;5073177;28;20558;-69
2023/06/14 06:07:52;;;;;;;6.80;4.10;;;16.20;98.00;;;;;;5090947;28;20448;-69
2023/06/14 06:10:19;;;;;;;7.87;4.57;;;16.30;98.00;;;;;;5090951;28;20451;-68
2023/06/14 06:12:47;;;;;;;10.20;5.00;;;16.40;98.00;;;;;;5091753;28;20448;-68
2023/06/14 06:15:17;;;;;;;10.40;5.10;;;16.50;98.00;;;;;;5092011;28;20452;-69
2023/06/14 06:17:44;;;;;;;5.67;3.57;;;16.60;98.00;;;;;;5091282;28;20460;-67
2023/06/14 06:20:12;;;;;;;8.80;4.07;;;16.70;98.00;;;;;;5090834;28;20729;-66
2023/06/14 06:22:40;;;;;;;5.57;3.40;;;17.20;98.00;;;;;;5091773;28;20605;-67
2023/06/14 06:25:08;;;;;;;10.43;3.53;;;17.70;98.00;;;;;;5092306;28;20483;-67
2023/06/14 06:27:37;;;;;;;9.17;3.50;;;18.20;98.00;;;;;;5091297;28;20505;-66
2023/06/14 06:30:05;;;;;;;8.40;4.40;;;18.50;98.00;;;;;;5091563;28;20523;-66
2023/06/14 06:32:33;;;;;;;7.20;3.57;;;18.90;97.50;;;;;;5094684;28;20455;-67
2023/06/14 06:35:00;;;;;;;11.23;4.20;;;19.20;96.10;;;;;;5094569;28;20456;-66
2023/06/14 06:37:28;;;;;;;8.03;4.50;;;19.50;95.10;;;;;;5094324;28;20448;-66
2023/06/14 06:39:55;;;;;;;6.67;3.97;;;19.70;95.10;;;;;;5094727;28;20812;-64
2023/06/14 06:42:22;;;;;;;8.03;4.40;;;19.90;94.10;;;;;;5094197;28;21050;-65
2023/06/14 06:44:51;;;;;;;8.77;4.97;;;19.90;90.80;;;;;;5094462;28;20444;-65
2023/06/14 06:47:19;;;;;;;8.33;4.77;;;19.90;89.40;;;;;;5094051;28;20451;-65
2023/06/14 06:49:47;;;;;;;7.83;4.20;;;19.60;89.90;;;;;;5094021;28;20455;-65
2023/06/14 06:52:15;;;;;;;8.57;4.67;;;19.60;91.60;;;;;;5094311;28;20460;-65
2023/06/14 06:54:45;;;;;;;8.50;4.30;;;19.60;91.10;;;;;;5093927;28;20447;-63
2023/06/14 06:57:12;;;;;;;8.70;5.20;;;19.60;91.00;;;;;;5076559;28;20463;-64
2023/06/14 06:59:39;;;;;;;5.87;3.93;;;19.50;90.20;;;;;;5093740;28;20466;-64
2023/06/14 07:02:07;;;;;;;8.80;4.70;;;19.40;91.40;;;;;;5075981;28;20483;-65
2023/06/14 07:04:34;;;;;;;9.17;4.60;;;19.40;91.40;;;;;;5093912;28;20448;-66
2023/06/14 07:07:03;;;;;;;7.63;4.20;;;19.40;92.00;;;;;;5093913;28;20456;-65
2023/06/14 07:09:30;;;;;;;10.43;4.80;;;19.50;92.10;;;;;;5093756;28;21019;-65
2023/06/14 07:12:00;;;;;;;6.73;4.13;;;19.60;92.60;;;;;;5076000;28;20851;-65
2023/06/14 07:14:27;;;;;;;6.33;4.00;;;19.60;92.20;;;;;;5093627;28;20555;-65
2023/06/14 07:16:57;;;;;;;7.50;4.67;;;19.70;91.20;;;;;;5080937;28;20495;-64
2023/06/14 07:19:24;;;;;;;6.37;4.20;;;19.70;90.80;;;;;;5073502;28;20482;-65
2023/06/14 07:21:52;;;;;;;6.30;3.70;;;19.80;91.70;;;;;;5073272;28;20488;-65
2023/06/14 07:24:21;;;;;;;7.57;4.40;;;20.00;91.40;;;;;;5055894;28;20811;-64
2023/06/14 07:26:49;;;;;;;7.13;4.43;;;20.10;90.20;;;;;;5073955;28;20536;-65
2023/06/14 07:29:16;;;;;;;7.07;3.97;;;20.30;89.60;;;;;;5073770;28;20532;-65
2023/06/14 07:31:43;;;;;;;9.03;4.47;;;20.40;89.10;;;;;;5073803;28;20460;-64
2023/06/14 07:34:12;;;;;;;6.30;3.83;;;20.60;89.10;;;;;;5073578;28;20500;-65
2023/06/14 07:36:39;;;;;;;7.87;4.50;;;20.60;88.50;;;;;;5073186;28;20457;-65
2023/06/14 07:39:06;;;;;;;16.73;4.70;;;20.60;88.80;;;;;;5073764;28;20825;-66
2023/06/14 07:41:35;;;;;;;7.10;4.20;;;20.50;88.60;;;;;;5072303;28;20531;-64
2023/06/14 07:44:02;;;;;;;7.37;4.43;;;20.60;88.20;;;;;;5073591;28;20468;-63
2023/06/14 07:46:29;;;;;;;9.33;4.77;;;20.70;88.80;;;;;;5073380;28;20455;-65
2023/06/14 07:48:56;;;;;;;8.53;4.83;;;20.80;87.70;;;;;;5073688;28;20448;-64
2023/06/14 07:51:24;;;;;;;9.20;4.80;;;20.80;88.00;;;;;;5073348;28;20470;-66
2023/06/14 07:53:51;;;;;;;6.87;4.27;;;21.00;88.60;;;;;;5055599;28;20453;-63
2023/06/14 07:56:19;;;;;;;8.53;4.70;;;21.20;88.20;;;;;;5073347;28;20476;-64
2023/06/14 07:58:47;;;;;;;8.53;4.70;;;21.30;88.50;;;;;;5073199;28;20448;-66
2023/06/14 08:01:19;;;;;;;12.73;4.40;;;21.40;86.00;;;;;;5073404;28;20495;-65
2023/06/14 08:03:46;;;;;;;8.90;4.80;;;21.50;86.60;;;;;;5056270;28;20453;-65
2023/06/14 08:06:13;;;;;;;9.47;4.80;;;21.70;85.70;;;;;;5073243;28;20453;-65
2023/06/14 08:08:40;;;;;;;9.70;4.80;;;21.80;85.10;;;;;;5073277;28;20460;-66
2023/06/14 08:11:07;;;;;;;6.63;4.20;;;21.90;85.30;;;;;;5055426;28;20935;-68
2023/06/14 08:13:34;;;;;;;10.10;4.77;;;21.90;84.70;;;;;;5073185;28;20452;-67
2023/06/14 08:16:04;;;;;;;11.40;4.43;;;22.20;86.60;;;;;;5072929;28;20488;-68
2023/06/14 08:18:31;;;;;;;7.77;4.63;;;22.40;84.30;;;;;;5073190;28;20512;-68
2023/06/14 08:20:58;;;;;;;8.10;4.77;;;22.40;83.80;;;;;;5072643;28;20461;-67
2023/06/14 08:23:26;;;;;;;8.40;4.43;;;22.50;83.40;;;;;;5073171;28;20506;-68
2023/06/14 08:25:54;;;;;;;7.83;4.23;;;22.50;82.70;;;;;;5072742;28;20453;-66
2023/06/14 08:28:22;;;;;;;9.80;4.60;;;22.60;83.80;;;;;;5072884;28;20472;-66
2023/06/14 08:30:49;;;;;;;8.10;4.70;;;22.80;84.10;;;;;;5072434;28;20966;-66
2023/06/14 08:33:17;;;;;;;10.73;4.90;;;22.90;83.00;;;;;;5072658;28;20460;-66
2023/06/14 08:35:44;;;;;;;9.10;4.13;;;23.00;83.00;;;;;;5072321;28;20462;-68
2023/06/14 08:38:12;;;;;;;7.30;4.30;;;23.10;82.00;;;;;;5072806;28;20453;-68
2023/06/14 08:40:42;;;;;;;10.40;4.50;;;23.20;82.80;;;;;;5072366;28;20448;-69
2023/06/14 08:43:09;;;;;;;11.67;4.50;;;23.30;82.30;;;;;;5072576;28;20824;-68
2023/06/14 08:45:36;;;;;;;7.70;4.57;;;23.40;81.10;;;;;;5072259;28;20448;-69
2023/06/14 08:48:05;;;;;;;13.50;4.87;;;23.50;81.40;;;;;;5072341;28;20831;-69
2023/06/14 08:50:36;;;;;;;10.70;4.60;;;23.50;80.10;;;;;;5072280;28;21183;-69
2023/06/14 08:53:03;;;;;;;8.53;5.00;;;23.50;79.70;;;;;;5072168;28;20863;-68
2023/06/14 08:55:32;;;;;;;7.17;4.50;;;23.60;80.80;;;;;;5072289;28;20937;-67
2023/06/14 08:58:03;;;;;;;8.70;4.63;;;23.80;80.00;;;;;;5072354;28;20453;-66
2023/06/14 09:00:30;;;;;;;6.87;4.57;;;23.90;80.00;;;;;;5072211;28;20448;-67
2023/06/14 09:02:58;;;;;;;9.17;4.07;;;24.00;79.80;;;;;;5072173;28;20998;-67
2023/06/14 09:05:26;;;;;;;8.07;4.40;;;24.20;79.90;;;;;;5038159;28;20544;-68
2023/06/14 09:07:56;;;;;;;6.10;4.10;;;24.20;78.00;;;;;;5072197;28;21017;-67
2023/06/14 09:10:25;;;;;;;6.40;4.10;;;24.20;77.80;;;;;;5072374;28;20476;-67
2023/06/14 09:12:52;;;;;;;6.53;4.10;;;24.30;77.30;;;;;;5072389;28;20484;-67
2023/06/14 09:15:20;;;;;;;7.70;4.47;;;24.50;75.80;;;;;;5071901;28;20452;-67
2023/06/14 09:17:47;;;;;;;10.60;4.78;;;24.50;75.10;;;;;;5071582;28;20442;-67
2023/06/14 09:20:18;;;;;;;6.60;4.43;;;24.50;74.70;;;;;;5071775;28;20217;-68
2023/06/14 09:22:45;;;;;;;7.67;4.50;;;24.50;76.40;;;;;;5071515;28;20519;-67
2023/06/14 09:25:15;;;;;;;8.50;4.30;;;24.40;74.80;;;;;;5071298;28;20923;-68
2023/06/14 09:27:42;;;;;;;6.10;4.10;;;24.40;75.80;;;;;;5071197;28;20456;-67
2023/06/14 09:30:11;;;;;;;7.10;4.53;;;24.40;74.30;;;;;;5071136;28;20463;-67
2023/06/14 09:32:40;;;;;;;5.30;3.47;;;24.50;74.00;;;;;;5060829;28;20498;-67
2023/06/14 09:35:08;;;;;;;7.73;4.73;;;24.50;75.20;;;;;;5050890;28;20458;-68
2023/06/14 09:37:37;;;;;;;7.33;4.47;;;24.40;75.30;;;;;;5051128;28;20774;-67
2023/06/14 09:40:06;;;;;;;8.00;4.50;;;23.90;75.30;;;;;;5050932;28;20868;-67
2023/06/14 09:42:36;;;;;;;7.93;4.50;;;23.70;75.00;;;;;;5050611;28;20551;-67
2023/06/14 09:45:04;;;;;;;8.00;4.70;;;23.70;75.00;;;;;;5050903;28;20515;-67
2023/06/14 09:47:32;;;;;;;7.33;4.50;;;23.70;74.60;;;;;;5050812;28;20457;-68
2023/06/14 09:50:00;;;;;;;6.83;4.10;;;23.60;74.70;;;;;;5051026;28;20567;-67
2023/06/14 09:52:28;;;;;;;7.10;4.60;;;23.70;75.40;;;;;;5050607;28;20458;-67
2023/06/14 09:54:56;;;;;;;8.27;4.40;;;24.00;75.60;;;;;;5050915;28;20460;-68
2023/06/14 09:57:25;;;;;;;6.93;4.17;;;24.20;74.40;;;;;;5050818;28;20461;-67
2023/06/14 10:00:00;;;;;;;7.03;4.20;;;24.20;74.60;;;;;;5033205;28;20453;-67
2023/06/14 10:02:31;;;;;;;6.20;3.80;;;24.20;74.30;;;;;;5050725;28;20535;-67
2023/06/14 10:05:06;;;;;;;6.60;4.30;;;24.50;76.20;;;;;;5051222;28;20457;-68
2023/06/14 10:07:37;;;;;;;7.43;4.47;;;24.80;73.50;;;;;;5037174;28;21022;-68
2023/06/14 10:10:06;;;;;;;7.43;4.17;;;25.40;72.70;;;;;;5054667;28;20468;-68
2023/06/14 10:12:33;;;;;;;7.90;4.53;;;25.90;71.80;;;;;;5054467;28;20991;-67
2023/06/14 10:15:03;;;;;;;6.93;4.50;;;26.30;71.10;;;;;;5054818;28;20512;-68
2023/06/14 10:17:39;;;;;;;6.83;4.20;;;26.40;71.30;;;;;;5054524;28;20461;-67
2023/06/14 10:20:19;;;;;;;7.27;4.50;;;26.60;69.90;;;;;;5054560;28;20468;-67
2023/06/14 10:22:51;;;;;;;7.70;4.67;;;26.80;69.70;;;;;;5052844;28;20478;-67
2023/06/14 10:25:29;;;;;;;7.30;4.30;;;27.00;69.90;;;;;;5054531;28;20457;-67
2023/06/14 10:28:05;;;;;;;8.53;4.80;;;27.00;69.20;;;;;;5054344;28;20549;-67
2023/06/14 10:30:34;;;;;;;6.90;4.40;;;27.30;68.70;;;;;;5054093;28;20462;-67
2023/06/14 10:33:10;;;;;;;7.43;4.47;;;27.30;67.50;;;;;;5053942;28;20503;-67
2023/06/14 10:35:37;;;;;;;6.90;4.17;;;27.50;68.20;;;;;;5036529;28;20457;-67
2023/06/14 10:38:12;;;;;;;6.30;4.10;;;27.70;66.80;;;;;;5054094;28;20595;-67
2023/06/14 10:40:40;;;;;;;7.77;4.50;;;27.70;68.20;;;;;;5053710;28;20461;-67
2023/06/14 10:43:24;;;;;;;6.00;4.40;;;27.90;68.10;;;;;;5053961;28;20486;-67
2023/06/14 10:46:17;;;;;;;8.83;4.43;;;28.00;67.00;;;;;;5053873;28;20503;-67
2023/06/14 10:48:45;;;;;;;6.83;4.50;;;28.10;67.20;;;;;;5050711;28;20462;-67
2023/06/14 10:51:21;;;;;;;5.30;4.17;;;28.30;66.30;;;;;;5053684;28;20466;-67
2023/06/14 10:53:49;;;;;;;7.87;4.10;;;28.30;67.10;;;;;;5053787;28;20457;-68
2023/06/14 10:56:30;;;;;;;6.87;4.63;;;28.50;65.70;;;;;;5053773;28;20470;-68
2023/06/14 10:58:58;;;;;;;9.50;4.47;;;28.30;64.40;;;;;;5054171;28;20818;-67
2023/06/14 11:01:56;;;;;;;7.80;4.50;;;28.00;65.70;;;;;;5053771;28;20454;-67
2023/06/14 11:04:34;;;;;;;6.80;4.37;;;27.50;65.90;;;;;;5053985;28;20461;-67
2023/06/14 11:07:25;;;;;;;6.63;4.60;;;27.10;67.70;;;;;;5053760;28;20453;-66
2023/06/14 11:10:06;;;;;;;6.10;4.33;;;27.00;67.20;;;;;;5053734;28;20464;-67
2023/06/14 11:12:36;;;;;;;8.00;4.50;;;27.20;68.30;;;;;;5053540;28;20539;-66
2023/06/14 11:15:03;;;;;;;6.07;4.30;;;27.50;66.40;;;;;;5035694;28;20457;-67
2023/06/14 11:17:33;;;;;;;7.53;4.43;;;27.40;66.40;;;;;;5052998;28;20460;-66
2023/06/14 11:20:10;;;;;;;7.63;4.60;;;27.10;66.60;;;;;;5053085;28;20468;-67
2023/06/14 11:22:41;;;;;;;6.63;4.63;;;26.70;66.80;;;;;;5052938;28;20478;-66
2023/06/14 11:25:10;;;;;;;6.43;4.37;;;26.30;68.90;;;;;;5053132;28;20519;-67
2023/06/14 11:27:37;;;;;;;9.67;4.13;;;26.00;70.10;;;;;;5053047;28;20519;-67
2023/06/14 11:30:08;;;;;;;6.97;4.17;;;26.10;69.10;;;;;;5052981;28;20975;-66
2023/06/14 11:32:36;;;;;;;12.30;4.40;;;26.10;69.30;;;;;;5035622;28;20472;-66
2023/06/14 11:35:04;;;;;;;12.97;5.10;;;26.00;69.10;;;;;;5052985;28;20469;-66
2023/06/14 11:37:33;;;;;;;7.10;4.80;;;25.70;69.40;;;;;;5052944;28;20833;-67
2023/06/14 11:40:00;;;;;;;6.87;4.13;;;25.40;70.60;;;;;;5052871;28;20493;-66
2023/06/14 11:42:28;;;;;;;7.27;4.40;;;25.20;71.00;;;;;;5053069;28;20986;-66
2023/06/14 11:44:56;;;;;;;7.80;4.67;;;25.40;71.20;;;;;;5052663;28;20458;-66
2023/06/14 11:47:23;;;;;;;8.07;4.50;;;26.10;72.60;;;;;;5052884;28;20508;-66
2023/06/14 11:49:52;;;;;;;5.80;4.13;;;26.70;69.80;;;;;;5052782;28;20454;-67
2023/06/14 11:52:19;;;;;;;8.50;4.30;;;27.40;68.20;;;;;;5052807;28;20453;-67
2023/06/14 11:54:49;;;;;;;9.40;4.50;;;28.00;65.70;;;;;;5052866;28;20450;-67
2023/06/14 11:57:18;;;;;;;8.20;4.97;;;28.40;66.30;;;;;;5053053;28;20454;-66
2023/06/14 11:59:46;;;;;;;8.83;5.20;;;28.70;65.00;;;;;;5035753;28;20469;-66
2023/06/14 12:02:16;;;;;;;7.50;4.67;;;28.70;64.80;;;;;;5052555;28;20477;-66
2023/06/14 12:04:43;;;;;;;8.20;5.17;;;28.10;65.00;;;;;;5052498;28;20457;-67
2023/06/14 12:07:14;;;;;;;7.10;4.73;;;27.50;65.90;;;;;;5052484;28;20462;-67
2023/06/14 12:09:43;;;;;;;9.53;5.00;;;27.20;67.80;;;;;;5052439;28;20454;-66
2023/06/14 12:12:18;;;;;;;6.90;4.33;;;27.50;67.20;;;;;;5034893;28;21040;-68
2023/06/14 12:14:45;;;;;;;7.43;4.43;;;27.40;67.00;;;;;;5052236;28;20554;-70
2023/06/14 12:17:12;;;;;;;8.23;4.40;;;27.30;67.40;;;;;;5052057;28;20476;-68
2023/06/14 12:19:46;;;;;;;12.07;4.60;;;27.00;68.00;;;;;;5052243;28;20461;-67
2023/06/14 12:22:15;;;;;;;7.30;4.10;;;27.00;66.90;;;;;;5051885;28;20461;-67
2023/06/14 12:24:44;;;;;;;6.63;4.37;;;26.70;68.50;;;;;;5051898;28;20466;-66
2023/06/14 12:27:15;;;;;;;8.00;4.67;;;26.60;68.70;;;;;;5051713;28;20450;-57
2023/06/14 12:29:43;;;;;;;8.07;4.30;;;26.50;69.70;;;;;;5051510;28;20456;-66
2023/06/14 12:32:10;;;;;;;9.53;5.20;;;26.60;68.70;;;;;;5051959;28;20486;-65
2023/06/14 12:34:38;;;;;;;7.50;4.63;;;27.00;69.10;;;;;;5051927;28;20454;-66
2023/06/14 12:37:06;;;;;;;7.87;4.77;;;27.60;67.30;;;;;;5051694;28;20456;-67
2023/06/14 12:39:38;;;;;;;8.03;4.50;;;28.10;65.50;;;;;;5051905;28;20516;-68
2023/06/14 12:42:06;;;;;;;10.33;4.67;;;28.80;65.70;;;;;;5051876;28;20490;-67
2023/06/14 12:44:35;;;;;;;7.53;4.60;;;29.30;66.20;;;;;;5033984;28;20488;-67
2023/06/14 12:47:02;;;;;;;8.00;5.20;;;29.80;64.10;;;;;;5051774;28;20557;-67
2023/06/14 12:49:29;;;;;;;8.30;4.50;;;30.20;62.40;;;;;;5051696;28;20464;-68
2023/06/14 12:51:57;;;;;;;6.90;4.60;;;30.60;61.50;;;;;;5051923;28;20461;-66
2023/06/14 12:54:25;;;;;;;6.27;4.80;;;30.80;63.20;;;;;;5018012;28;20458;-66
2023/06/14 12:56:54;;;;;;;7.60;4.70;;;30.70;60.30;;;;;;5049256;28;20503;-66